UWKD

Kazan International Airport

Kazan, Russian Federation
TAF UWKD 210800Z 2109/2209 08007G12MPS 9999 BKN015 TX26/2111Z TN18/2201Z TEMPO 2109/2115 07010G15MPS
Issued Valid From Valid To
Jul-21 @ 08:00 UTC
(2 hours ago)
Jul-21 @ 09:00 UTC
(58 minutes ago)
Jul-22 @ 09:00 UTC
(in 23 hours)
Jul-21 @ 09:00 to Jul-22 @ 09:00
TAF UWKD 210800Z 2109/2209 08007G12MPS 9999 BKN015 TX26/2111Z TN18/2201Z
Wind Visibility Clouds
80° at 14 knots
 Gusting to 23 knots
10,000+ meters
  • Broken at 1,500' AGL
Temporary Jul-21 @ 09:00 to Jul-21 @ 15:00
TEMPO 2109/2115 07010G15MPS
Wind
70° at 19 knots
 Gusting to 29 knots
TAF UWKD 210800Z 2109/2209 08007G12MPS 9999 BKN015 TX26/2111Z TN18/2201Z TEMPO 2109/2115 07010G15MPS
Issued Jul-21 @ 08:00 UTC
(2 hours ago)
Valid From Jul-21 @ 09:00 UTC
(58 minutes ago)
Valid To Jul-22 @ 09:00 UTC
(in 23 hours)
Jul-21 @ 09:00 - Jul-22 @ 09:00
Wind Visibility
80° at 14 knots
 Gusting to 23 knots
10,000+ meters
Clouds
  • Broken at 1,500' AGL
Temporary Jul-21 @ 09:00 - Jul-21 @ 15:00
Wind
70° at 19 knots
 Gusting to 29 knots